sensor_id;sensor_type;location;lat;lon;timestamp;P1;durP1;ratioP1;P2;durP2;ratioP2
10009;SDS011;5044;48.652;9.250;2023-05-07T00:00:28;3.53;;;1.83;;
10009;SDS011;5044;48.652;9.250;2023-05-07T00:02:56;2.05;;;1.60;;
10009;SDS011;5044;48.652;9.250;2023-05-07T00:05:23;3.97;;;1.95;;
10009;SDS011;5044;48.652;9.250;2023-05-07T00:07:50;2.08;;;1.88;;
10009;SDS011;5044;48.652;9.250;2023-05-07T00:10:17;2.65;;;2.10;;
10009;SDS011;5044;48.652;9.250;2023-05-07T00:12:45;3.97;;;2.58;;
10009;SDS011;5044;48.652;9.250;2023-05-07T00:15:11;8.00;;;3.00;;
10009;SDS011;5044;48.652;9.250;2023-05-07T00:17:38;5.07;;;2.55;;
10009;SDS011;5044;48.652;9.250;2023-05-07T00:20:07;6.55;;;2.95;;
10009;SDS011;5044;48.652;9.250;2023-05-07T00:22:34;4.40;;;3.15;;
10009;SDS011;5044;48.652;9.250;2023-05-07T00:25:01;4.75;;;3.42;;
10009;SDS011;5044;48.652;9.250;2023-05-07T00:27:28;6.93;;;3.00;;
10009;SDS011;5044;48.652;9.250;2023-05-07T00:29:55;4.93;;;3.50;;
10009;SDS011;5044;48.652;9.250;2023-05-07T00:32:22;4.45;;;2.55;;
10009;SDS011;5044;48.652;9.250;2023-05-07T00:34:49;3.63;;;2.35;;
10009;SDS011;5044;48.652;9.250;2023-05-07T00:37:18;4.28;;;3.15;;
10009;SDS011;5044;48.652;9.250;2023-05-07T00:39:45;5.95;;;2.75;;
10009;SDS011;5044;48.652;9.250;2023-05-07T00:42:11;2.67;;;2.17;;
10009;SDS011;5044;48.652;9.250;2023-05-07T00:44:40;2.88;;;1.85;;
10009;SDS011;5044;48.652;9.250;2023-05-07T00:47:07;3.60;;;2.90;;
10009;SDS011;5044;48.652;9.250;2023-05-07T00:49:35;2.67;;;2.10;;
10009;SDS011;5044;48.652;9.250;2023-05-07T00:52:05;3.78;;;2.15;;
10009;SDS011;5044;48.652;9.250;2023-05-07T00:54:35;2.10;;;1.90;;
10009;SDS011;5044;48.652;9.250;2023-05-07T00:57:02;3.08;;;1.67;;
10009;SDS011;5044;48.652;9.250;2023-05-07T00:59:30;2.30;;;1.83;;
10009;SDS011;5044;48.652;9.250;2023-05-07T01:01:57;4.35;;;1.98;;
10009;SDS011;5044;48.652;9.250;2023-05-07T01:04:25;3.15;;;1.80;;
10009;SDS011;5044;48.652;9.250;2023-05-07T01:06:52;3.22;;;1.77;;
10009;SDS011;5044;48.652;9.250;2023-05-07T01:09:20;4.93;;;2.38;;
10009;SDS011;5044;48.652;9.250;2023-05-07T01:11:49;3.22;;;1.92;;
10009;SDS011;5044;48.652;9.250;2023-05-07T01:14:17;1.77;;;1.58;;
10009;SDS011;5044;48.652;9.250;2023-05-07T01:16:45;2.10;;;1.77;;
10009;SDS011;5044;48.652;9.250;2023-05-07T01:19:12;2.97;;;2.15;;
10009;SDS011;5044;48.652;9.250;2023-05-07T01:21:43;2.15;;;1.80;;
10009;SDS011;5044;48.652;9.250;2023-05-07T01:24:14;2.78;;;1.33;;
10009;SDS011;5044;48.652;9.250;2023-05-07T01:26:42;2.47;;;1.60;;
10009;SDS011;5044;48.652;9.250;2023-05-07T01:29:09;3.08;;;1.90;;
10009;SDS011;5044;48.652;9.250;2023-05-07T01:31:36;3.83;;;1.50;;
10009;SDS011;5044;48.652;9.250;2023-05-07T01:34:04;2.65;;;1.42;;
10009;SDS011;5044;48.652;9.250;2023-05-07T01:36:34;1.90;;;1.60;;
10009;SDS011;5044;48.652;9.250;2023-05-07T01:39:03;2.88;;;1.90;;
10009;SDS011;5044;48.652;9.250;2023-05-07T01:41:32;3.13;;;1.23;;
10009;SDS011;5044;48.652;9.250;2023-05-07T01:43:59;1.33;;;1.20;;
10009;SDS011;5044;48.652;9.250;2023-05-07T01:46:26;3.15;;;1.55;;
10009;SDS011;5044;48.652;9.250;2023-05-07T01:48:53;3.13;;;1.42;;
10009;SDS011;5044;48.652;9.250;2023-05-07T01:51:20;4.03;;;1.55;;
10009;SDS011;5044;48.652;9.250;2023-05-07T01:53:47;5.32;;;2.15;;
10009;SDS011;5044;48.652;9.250;2023-05-07T01:56:15;3.60;;;1.30;;
10009;SDS011;5044;48.652;9.250;2023-05-07T01:58:45;1.95;;;1.67;;
10009;SDS011;5044;48.652;9.250;2023-05-07T02:01:12;4.70;;;1.50;;
10009;SDS011;5044;48.652;9.250;2023-05-07T02:03:39;1.50;;;1.10;;
10009;SDS011;5044;48.652;9.250;2023-05-07T02:06:06;1.55;;;1.30;;
10009;SDS011;5044;48.652;9.250;2023-05-07T02:08:33;1.55;;;1.45;;
10009;SDS011;5044;48.652;9.250;2023-05-07T02:11:00;2.53;;;1.75;;
10009;SDS011;5044;48.652;9.250;2023-05-07T02:13:28;4.53;;;1.70;;
10009;SDS011;5044;48.652;9.250;2023-05-07T02:15:57;1.38;;;1.10;;
10009;SDS011;5044;48.652;9.250;2023-05-07T02:18:24;1.90;;;1.55;;
10009;SDS011;5044;48.652;9.250;2023-05-07T02:20:51;2.53;;;1.60;;
10009;SDS011;5044;48.652;9.250;2023-05-07T02:23:18;2.22;;;1.80;;
10009;SDS011;5044;48.652;9.250;2023-05-07T02:25:45;3.63;;;1.58;;
10009;SDS011;5044;48.652;9.250;2023-05-07T02:28:12;2.08;;;1.60;;
10009;SDS011;5044;48.652;9.250;2023-05-07T02:30:39;2.22;;;1.58;;
10009;SDS011;5044;48.652;9.250;2023-05-07T02:33:07;2.20;;;1.70;;
10009;SDS011;5044;48.652;9.250;2023-05-07T02:35:34;2.72;;;1.65;;
10009;SDS011;5044;48.652;9.250;2023-05-07T02:38:01;4.20;;;2.00;;
10009;SDS011;5044;48.652;9.250;2023-05-07T02:40:28;3.05;;;1.63;;
10009;SDS011;5044;48.652;9.250;2023-05-07T02:42:58;4.40;;;2.00;;
10009;SDS011;5044;48.652;9.250;2023-05-07T02:45:25;3.00;;;1.67;;
10009;SDS011;5044;48.652;9.250;2023-05-07T02:47:52;3.45;;;1.67;;
10009;SDS011;5044;48.652;9.250;2023-05-07T02:50:21;3.13;;;1.83;;
10009;SDS011;5044;48.652;9.250;2023-05-07T02:52:48;2.75;;;1.90;;
10009;SDS011;5044;48.652;9.250;2023-05-07T02:55:15;4.28;;;2.47;;
10009;SDS011;5044;48.652;9.250;2023-05-07T02:57:42;4.68;;;2.35;;
10009;SDS011;5044;48.652;9.250;2023-05-07T03:00:13;3.20;;;2.08;;
10009;SDS011;5044;48.652;9.250;2023-05-07T03:05:07;2.78;;;2.03;;
10009;SDS011;5044;48.652;9.250;2023-05-07T03:07:36;3.65;;;2.17;;
10009;SDS011;5044;48.652;9.250;2023-05-07T03:10:03;4.63;;;2.45;;
10009;SDS011;5044;48.652;9.250;2023-05-07T03:12:31;2.60;;;2.05;;
10009;SDS011;5044;48.652;9.250;2023-05-07T03:14:58;3.33;;;2.20;;
10009;SDS011;5044;48.652;9.250;2023-05-07T03:17:25;3.47;;;1.80;;
10009;SDS011;5044;48.652;9.250;2023-05-07T03:19:51;3.17;;;2.00;;
10009;SDS011;5044;48.652;9.250;2023-05-07T03:22:18;2.80;;;1.60;;
10009;SDS011;5044;48.652;9.250;2023-05-07T03:24:47;2.35;;;1.83;;
10009;SDS011;5044;48.652;9.250;2023-05-07T03:27:13;1.77;;;1.30;;
10009;SDS011;5044;48.652;9.250;2023-05-07T03:29:40;1.73;;;1.38;;
10009;SDS011;5044;48.652;9.250;2023-05-07T03:32:07;1.48;;;1.10;;
10009;SDS011;5044;48.652;9.250;2023-05-07T03:34:34;1.63;;;1.00;;
10009;SDS011;5044;48.652;9.250;2023-05-07T03:37:01;4.53;;;1.85;;
10009;SDS011;5044;48.652;9.250;2023-05-07T03:39:28;2.75;;;1.50;;
10009;SDS011;5044;48.652;9.250;2023-05-07T03:41:56;2.05;;;1.60;;
10009;SDS011;5044;48.652;9.250;2023-05-07T03:44:23;2.35;;;1.60;;
10009;SDS011;5044;48.652;9.250;2023-05-07T03:46:50;2.25;;;1.65;;
10009;SDS011;5044;48.652;9.250;2023-05-07T03:49:17;2.00;;;1.60;;
10009;SDS011;5044;48.652;9.250;2023-05-07T03:51:44;1.80;;;1.60;;
10009;SDS011;5044;48.652;9.250;2023-05-07T03:54:11;2.67;;;1.55;;
10009;SDS011;5044;48.652;9.250;2023-05-07T03:56:38;2.05;;;1.15;;
10009;SDS011;5044;48.652;9.250;2023-05-07T03:59:06;2.25;;;1.80;;
10009;SDS011;5044;48.652;9.250;2023-05-07T04:01:33;2.00;;;1.67;;
10009;SDS011;5044;48.652;9.250;2023-05-07T04:04:00;1.95;;;1.38;;
10009;SDS011;5044;48.652;9.250;2023-05-07T04:06:28;3.00;;;1.73;;
10009;SDS011;5044;48.652;9.250;2023-05-07T04:08:55;2.33;;;1.40;;
10009;SDS011;5044;48.652;9.250;2023-05-07T04:11:22;2.60;;;1.98;;
10009;SDS011;5044;48.652;9.250;2023-05-07T04:13:49;3.13;;;2.08;;
10009;SDS011;5044;48.652;9.250;2023-05-07T04:16:20;2.92;;;2.00;;
10009;SDS011;5044;48.652;9.250;2023-05-07T04:18:47;2.50;;;1.45;;
10009;SDS011;5044;48.652;9.250;2023-05-07T04:21:14;4.03;;;1.85;;
10009;SDS011;5044;48.652;9.250;2023-05-07T04:23:41;2.95;;;2.00;;
10009;SDS011;5044;48.652;9.250;2023-05-07T04:26:08;3.10;;;2.30;;
10009;SDS011;5044;48.652;9.250;2023-05-07T04:28:35;2.63;;;2.22;;
10009;SDS011;5044;48.652;9.250;2023-05-07T04:31:02;3.28;;;1.95;;
10009;SDS011;5044;48.652;9.250;2023-05-07T04:33:30;2.45;;;2.00;;
10009;SDS011;5044;48.652;9.250;2023-05-07T04:35:58;3.35;;;2.03;;
10009;SDS011;5044;48.652;9.250;2023-05-07T04:38:28;3.30;;;2.00;;
10009;SDS011;5044;48.652;9.250;2023-05-07T04:40:55;3.80;;;2.03;;
10009;SDS011;5044;48.652;9.250;2023-05-07T04:43:22;6.43;;;2.58;;
10009;SDS011;5044;48.652;9.250;2023-05-07T04:45:52;3.78;;;2.28;;
10009;SDS011;5044;48.652;9.250;2023-05-07T04:48:19;3.33;;;2.30;;
10009;SDS011;5044;48.652;9.250;2023-05-07T04:50:48;3.55;;;2.20;;
10009;SDS011;5044;48.652;9.250;2023-05-07T04:53:15;4.18;;;2.30;;
10009;SDS011;5044;48.652;9.250;2023-05-07T04:55:42;3.67;;;3.25;;
10009;SDS011;5044;48.652;9.250;2023-05-07T04:58:10;3.22;;;2.40;;
10009;SDS011;5044;48.652;9.250;2023-05-07T05:00:36;2.78;;;2.00;;
10009;SDS011;5044;48.652;9.250;2023-05-07T05:03:04;3.58;;;2.13;;
10009;SDS011;5044;48.652;9.250;2023-05-07T05:05:31;3.20;;;2.42;;
10009;SDS011;5044;48.652;9.250;2023-05-07T05:07:59;4.03;;;2.50;;
10009;SDS011;5044;48.652;9.250;2023-05-07T05:10:26;2.65;;;2.13;;
10009;SDS011;5044;48.652;9.250;2023-05-07T05:12:53;3.58;;;2.40;;
10009;SDS011;5044;48.652;9.250;2023-05-07T05:15:20;2.53;;;1.75;;
10009;SDS011;5044;48.652;9.250;2023-05-07T05:17:46;2.92;;;2.00;;
10009;SDS011;5044;48.652;9.250;2023-05-07T05:20:13;2.40;;;1.80;;
10009;SDS011;5044;48.652;9.250;2023-05-07T05:22:40;5.05;;;2.20;;
10009;SDS011;5044;48.652;9.250;2023-05-07T05:25:09;3.05;;;1.95;;
10009;SDS011;5044;48.652;9.250;2023-05-07T05:27:36;1.88;;;1.48;;
10009;SDS011;5044;48.652;9.250;2023-05-07T05:30:03;3.50;;;1.90;;
10009;SDS011;5044;48.652;9.250;2023-05-07T05:32:31;2.20;;;1.70;;
10009;SDS011;5044;48.652;9.250;2023-05-07T05:34:58;2.33;;;1.77;;
10009;SDS011;5044;48.652;9.250;2023-05-07T05:37:25;3.67;;;2.40;;
10009;SDS011;5044;48.652;9.250;2023-05-07T05:39:52;3.08;;;1.23;;
10009;SDS011;5044;48.652;9.250;2023-05-07T05:42:21;4.10;;;2.17;;
10009;SDS011;5044;48.652;9.250;2023-05-07T05:44:48;3.15;;;2.10;;
10009;SDS011;5044;48.652;9.250;2023-05-07T05:47:15;3.72;;;2.42;;
10009;SDS011;5044;48.652;9.250;2023-05-07T05:49:41;4.15;;;2.30;;
10009;SDS011;5044;48.652;9.250;2023-05-07T05:52:09;5.53;;;2.35;;
10009;SDS011;5044;48.652;9.250;2023-05-07T05:54:38;4.22;;;2.08;;
10009;SDS011;5044;48.652;9.250;2023-05-07T05:57:04;3.78;;;2.20;;
10009;SDS011;5044;48.652;9.250;2023-05-07T05:59:33;3.22;;;1.88;;
10009;SDS011;5044;48.652;9.250;2023-05-07T06:02:00;2.35;;;1.90;;
10009;SDS011;5044;48.652;9.250;2023-05-07T06:04:27;3.33;;;2.05;;
10009;SDS011;5044;48.652;9.250;2023-05-07T06:06:54;2.25;;;1.92;;
10009;SDS011;5044;48.652;9.250;2023-05-07T06:09:21;3.15;;;1.58;;
10009;SDS011;5044;48.652;9.250;2023-05-07T06:11:48;3.25;;;2.10;;
10009;SDS011;5044;48.652;9.250;2023-05-07T06:14:15;2.75;;;1.75;;
10009;SDS011;5044;48.652;9.250;2023-05-07T06:16:43;2.10;;;1.80;;
10009;SDS011;5044;48.652;9.250;2023-05-07T06:19:10;1.90;;;1.67;;
10009;SDS011;5044;48.652;9.250;2023-05-07T06:21:38;2.88;;;2.03;;
10009;SDS011;5044;48.652;9.250;2023-05-07T06:24:05;4.28;;;2.30;;
10009;SDS011;5044;48.652;9.250;2023-05-07T06:26:33;4.35;;;2.20;;
10009;SDS011;5044;48.652;9.250;2023-05-07T06:28:59;5.55;;;2.08;;
10009;SDS011;5044;48.652;9.250;2023-05-07T06:31:29;3.70;;;2.00;;
10009;SDS011;5044;48.652;9.250;2023-05-07T06:33:58;6.03;;;2.27;;
10009;SDS011;5044;48.652;9.250;2023-05-07T06:36:27;3.55;;;2.17;;
10009;SDS011;5044;48.652;9.250;2023-05-07T06:38:54;2.45;;;1.92;;
10009;SDS011;5044;48.652;9.250;2023-05-07T06:41:53;2.13;;;1.92;;
10009;SDS011;5044;48.652;9.250;2023-05-07T06:44:20;3.40;;;2.08;;
10009;SDS011;5044;48.652;9.250;2023-05-07T06:46:47;3.13;;;2.10;;
10009;SDS011;5044;48.652;9.250;2023-05-07T06:49:16;2.55;;;1.85;;
10009;SDS011;5044;48.652;9.250;2023-05-07T06:51:43;3.22;;;1.90;;
10009;SDS011;5044;48.652;9.250;2023-05-07T06:54:10;3.42;;;2.10;;
10009;SDS011;5044;48.652;9.250;2023-05-07T06:56:36;2.92;;;2.05;;
10009;SDS011;5044;48.652;9.250;2023-05-07T06:59:03;3.50;;;2.20;;
10009;SDS011;5044;48.652;9.250;2023-05-07T07:01:30;5.15;;;2.05;;
10009;SDS011;5044;48.652;9.250;2023-05-07T07:03:57;2.67;;;1.95;;
10009;SDS011;5044;48.652;9.250;2023-05-07T07:06:25;5.55;;;2.45;;
10009;SDS011;5044;48.652;9.250;2023-05-07T07:08:52;3.40;;;1.95;;
10009;SDS011;5044;48.652;9.250;2023-05-07T07:11:19;4.28;;;2.40;;
10009;SDS011;5044;48.652;9.250;2023-05-07T07:13:45;4.30;;;2.42;;
10009;SDS011;5044;48.652;9.250;2023-05-07T07:16:12;3.72;;;2.03;;
10009;SDS011;5044;48.652;9.250;2023-05-07T07:18:39;2.30;;;1.77;;
10009;SDS011;5044;48.652;9.250;2023-05-07T07:21:06;4.22;;;2.58;;
10009;SDS011;5044;48.652;9.250;2023-05-07T07:23:34;2.03;;;1.83;;
10009;SDS011;5044;48.652;9.250;2023-05-07T07:26:01;4.22;;;2.55;;
10009;SDS011;5044;48.652;9.250;2023-05-07T07:28:28;4.38;;;1.90;;
10009;SDS011;5044;48.652;9.250;2023-05-07T07:30:54;8.68;;;3.08;;
10009;SDS011;5044;48.652;9.250;2023-05-07T07:33:21;2.47;;;2.10;;
10009;SDS011;5044;48.652;9.250;2023-05-07T07:35:48;2.58;;;2.38;;
10009;SDS011;5044;48.652;9.250;2023-05-07T07:38:15;4.28;;;2.13;;
10009;SDS011;5044;48.652;9.250;2023-05-07T07:40:43;3.22;;;2.45;;
10009;SDS011;5044;48.652;9.250;2023-05-07T07:43:11;2.83;;;2.13;;
10009;SDS011;5044;48.652;9.250;2023-05-07T07:45:37;3.08;;;2.17;;
10009;SDS011;5044;48.652;9.250;2023-05-07T07:48:04;3.03;;;2.08;;
10009;SDS011;5044;48.652;9.250;2023-05-07T07:50:31;5.07;;;2.17;;
10009;SDS011;5044;48.652;9.250;2023-05-07T07:52:58;4.00;;;2.17;;
10009;SDS011;5044;48.652;9.250;2023-05-07T07:55:27;4.35;;;2.53;;
10009;SDS011;5044;48.652;9.250;2023-05-07T07:57:57;4.82;;;2.45;;
10009;SDS011;5044;48.652;9.250;2023-05-07T08:00:26;4.38;;;2.25;;
10009;SDS011;5044;48.652;9.250;2023-05-07T08:02:53;2.83;;;1.80;;
10009;SDS011;5044;48.652;9.250;2023-05-07T08:05:28;3.67;;;1.70;;
10009;SDS011;5044;48.652;9.250;2023-05-07T08:07:55;2.63;;;1.70;;
10009;SDS011;5044;48.652;9.250;2023-05-07T08:10:23;4.72;;;1.80;;
10009;SDS011;5044;48.652;9.250;2023-05-07T08:12:50;3.40;;;1.98;;
10009;SDS011;5044;48.652;9.250;2023-05-07T08:15:19;3.35;;;2.42;;
10009;SDS011;5044;48.652;9.250;2023-05-07T08:17:45;4.53;;;1.83;;
10009;SDS011;5044;48.652;9.250;2023-05-07T08:20:12;2.75;;;1.90;;
10009;SDS011;5044;48.652;9.250;2023-05-07T08:22:39;1.92;;;1.77;;
10009;SDS011;5044;48.652;9.250;2023-05-07T08:25:07;2.15;;;1.92;;
10009;SDS011;5044;48.652;9.250;2023-05-07T08:27:34;3.22;;;2.08;;
10009;SDS011;5044;48.652;9.250;2023-05-07T08:30:02;2.80;;;1.90;;
10009;SDS011;5044;48.652;9.250;2023-05-07T08:32:30;3.50;;;2.40;;
10009;SDS011;5044;48.652;9.250;2023-05-07T08:34:57;4.32;;;2.20;;
10009;SDS011;5044;48.652;9.250;2023-05-07T08:37:24;4.53;;;1.70;;
10009;SDS011;5044;48.652;9.250;2023-05-07T08:39:51;2.65;;;2.05;;
10009;SDS011;5044;48.652;9.250;2023-05-07T08:42:18;1.70;;;1.60;;
10009;SDS011;5044;48.652;9.250;2023-05-07T08:44:46;2.20;;;1.40;;
10009;SDS011;5044;48.652;9.250;2023-05-07T08:47:14;4.70;;;1.70;;
10009;SDS011;5044;48.652;9.250;2023-05-07T08:49:43;3.42;;;1.80;;
10009;SDS011;5044;48.652;9.250;2023-05-07T08:52:11;2.33;;;1.73;;
10009;SDS011;5044;48.652;9.250;2023-05-07T08:54:38;3.70;;;2.35;;
10009;SDS011;5044;48.652;9.250;2023-05-07T08:57:05;2.47;;;1.50;;
10009;SDS011;5044;48.652;9.250;2023-05-07T08:59:32;2.72;;;1.63;;
10009;SDS011;5044;48.652;9.250;2023-05-07T09:01:59;4.85;;;1.73;;
10009;SDS011;5044;48.652;9.250;2023-05-07T09:04:27;2.95;;;1.60;;
10009;SDS011;5044;48.652;9.250;2023-05-07T09:06:55;3.05;;;1.60;;
10009;SDS011;5044;48.652;9.250;2023-05-07T09:09:28;1.80;;;1.38;;
10009;SDS011;5044;48.652;9.250;2023-05-07T09:11:56;2.03;;;1.50;;
10009;SDS011;5044;48.652;9.250;2023-05-07T09:14:24;2.42;;;1.15;;
10009;SDS011;5044;48.652;9.250;2023-05-07T09:16:51;1.52;;;1.40;;
10009;SDS011;5044;48.652;9.250;2023-05-07T09:19:22;3.67;;;1.30;;
10009;SDS011;5044;48.652;9.250;2023-05-07T09:21:50;3.05;;;1.63;;
10009;SDS011;5044;48.652;9.250;2023-05-07T09:24:26;3.55;;;1.35;;
10009;SDS011;5044;48.652;9.250;2023-05-07T09:26:58;1.17;;;0.90;;
10009;SDS011;5044;48.652;9.250;2023-05-07T09:29:27;4.35;;;1.50;;
10009;SDS011;5044;48.652;9.250;2023-05-07T09:32:00;1.30;;;1.20;;
10009;SDS011;5044;48.652;9.250;2023-05-07T09:34:27;3.70;;;1.50;;
10009;SDS011;5044;48.652;9.250;2023-05-07T09:36:55;3.63;;;0.98;;
10009;SDS011;5044;48.652;9.250;2023-05-07T09:39:24;2.05;;;1.02;;
10009;SDS011;5044;48.652;9.250;2023-05-07T09:41:51;2.53;;;1.27;;
10009;SDS011;5044;48.652;9.250;2023-05-07T09:44:20;2.42;;;1.20;;
10009;SDS011;5044;48.652;9.250;2023-05-07T09:46:50;5.38;;;1.10;;
10009;SDS011;5044;48.652;9.250;2023-05-07T09:49:22;1.50;;;1.40;;
10009;SDS011;5044;48.652;9.250;2023-05-07T09:51:50;4.70;;;1.35;;
10009;SDS011;5044;48.652;9.250;2023-05-07T09:54:18;1.50;;;0.88;;
10009;SDS011;5044;48.652;9.250;2023-05-07T09:56:46;2.22;;;1.00;;
10009;SDS011;5044;48.652;9.250;2023-05-07T09:59:16;3.85;;;0.93;;
10009;SDS011;5044;48.652;9.250;2023-05-07T10:01:43;1.95;;;1.20;;
10009;SDS011;5044;48.652;9.250;2023-05-07T10:04:11;1.45;;;1.02;;
10009;SDS011;5044;48.652;9.250;2023-05-07T10:06:38;3.42;;;1.08;;
10009;SDS011;5044;48.652;9.250;2023-05-07T10:09:07;2.70;;;1.40;;
10009;SDS011;5044;48.652;9.250;2023-05-07T10:11:34;2.85;;;1.27;;
10009;SDS011;5044;48.652;9.250;2023-05-07T10:14:05;5.88;;;1.60;;
10009;SDS011;5044;48.652;9.250;2023-05-07T10:16:32;3.47;;;1.10;;
10009;SDS011;5044;48.652;9.250;2023-05-07T10:19:02;2.75;;;1.20;;
10009;SDS011;5044;48.652;9.250;2023-05-07T10:21:31;1.27;;;1.00;;
10009;SDS011;5044;48.652;9.250;2023-05-07T10:24:03;2.50;;;1.02;;
10009;SDS011;5044;48.652;9.250;2023-05-07T10:26:33;3.78;;;1.23;;
10009;SDS011;5044;48.652;9.250;2023-05-07T10:29:03;1.67;;;0.80;;
10009;SDS011;5044;48.652;9.250;2023-05-07T10:31:41;4.07;;;1.33;;
10009;SDS011;5044;48.652;9.250;2023-05-07T10:34:20;2.85;;;0.95;;
10009;SDS011;5044;48.652;9.250;2023-05-07T10:39:16;0.80;;;0.75;;
10009;SDS011;5044;48.652;9.250;2023-05-07T10:41:43;2.70;;;1.08;;
10009;SDS011;5044;48.652;9.250;2023-05-07T10:44:12;4.38;;;1.13;;
10009;SDS011;5044;48.652;9.250;2023-05-07T10:47:03;2.90;;;1.15;;
10009;SDS011;5044;48.652;9.250;2023-05-07T10:49:33;2.22;;;1.10;;
10009;SDS011;5044;48.652;9.250;2023-05-07T10:52:10;1.88;;;1.25;;
10009;SDS011;5044;48.652;9.250;2023-05-07T10:54:38;3.35;;;1.38;;
10009;SDS011;5044;48.652;9.250;2023-05-07T11:00:03;3.22;;;1.13;;
10009;SDS011;5044;48.652;9.250;2023-05-07T11:03:06;2.30;;;0.98;;
10009;SDS011;5044;48.652;9.250;2023-05-07T11:05:33;1.23;;;1.02;;
10009;SDS011;5044;48.652;9.250;2023-05-07T11:08:01;2.38;;;1.63;;
10009;SDS011;5044;48.652;9.250;2023-05-07T11:16:17;4.60;;;1.20;;
10009;SDS011;5044;48.652;9.250;2023-05-07T11:21:16;2.13;;;1.08;;
10009;SDS011;5044;48.652;9.250;2023-05-07T11:23:59;1.90;;;1.70;;
10009;SDS011;5044;48.652;9.250;2023-05-07T11:26:27;2.03;;;0.90;;
10009;SDS011;5044;48.652;9.250;2023-05-07T11:28:55;3.70;;;1.33;;
10009;SDS011;5044;48.652;9.250;2023-05-07T11:31:24;1.35;;;1.20;;
10009;SDS011;5044;48.652;9.250;2023-05-07T11:33:53;1.77;;;1.17;;
10009;SDS011;5044;48.652;9.250;2023-05-07T11:36:21;2.17;;;1.35;;
10009;SDS011;5044;48.652;9.250;2023-05-07T11:38:50;2.33;;;1.07;;
10009;SDS011;5044;48.652;9.250;2023-05-07T11:41:17;4.05;;;1.35;;
10009;SDS011;5044;48.652;9.250;2023-05-07T11:43:58;1.48;;;1.10;;
10009;SDS011;5044;48.652;9.250;2023-05-07T11:48:55;0.85;;;0.82;;
10009;SDS011;5044;48.652;9.250;2023-05-07T11:51:23;2.53;;;1.17;;
10009;SDS011;5044;48.652;9.250;2023-05-07T11:53:52;1.70;;;0.80;;
10009;SDS011;5044;48.652;9.250;2023-05-07T11:56:20;1.52;;;1.00;;
10009;SDS011;5044;48.652;9.250;2023-05-07T11:58:48;1.50;;;0.85;;
10009;SDS011;5044;48.652;9.250;2023-05-07T12:01:17;6.53;;;0.82;;
10009;SDS011;5044;48.652;9.250;2023-05-07T12:03:44;2.15;;;1.10;;
10009;SDS011;5044;48.652;9.250;2023-05-07T12:06:13;1.35;;;0.90;;
10009;SDS011;5044;48.652;9.250;2023-05-07T12:11:10;3.13;;;1.30;;
10009;SDS011;5044;48.652;9.250;2023-05-07T12:13:41;1.63;;;0.95;;
10009;SDS011;5044;48.652;9.250;2023-05-07T12:16:08;6.13;;;1.08;;
10009;SDS011;5044;48.652;9.250;2023-05-07T12:18:35;0.90;;;0.90;;
10009;SDS011;5044;48.652;9.250;2023-05-07T12:21:04;1.85;;;1.17;;
10009;SDS011;5044;48.652;9.250;2023-05-07T12:23:34;1.30;;;0.88;;
10009;SDS011;5044;48.652;9.250;2023-05-07T12:26:02;1.77;;;0.70;;
10009;SDS011;5044;48.652;9.250;2023-05-07T12:28:36;1.38;;;0.70;;
10009;SDS011;5044;48.652;9.250;2023-05-07T12:31:04;1.40;;;0.80;;
10009;SDS011;5044;48.652;9.250;2023-05-07T12:33:32;3.40;;;0.80;;
10009;SDS011;5044;48.652;9.250;2023-05-07T12:36:02;0.90;;;0.65;;
10009;SDS011;5044;48.652;9.250;2023-05-07T12:38:34;3.10;;;1.00;;
10009;SDS011;5044;48.652;9.250;2023-05-07T12:41:02;1.35;;;0.82;;
10009;SDS011;5044;48.652;9.250;2023-05-07T12:43:29;1.75;;;0.70;;
10009;SDS011;5044;48.652;9.250;2023-05-07T12:45:57;1.10;;;0.52;;
10009;SDS011;5044;48.652;9.250;2023-05-07T12:48:26;8.65;;;1.40;;
10009;SDS011;5044;48.652;9.250;2023-05-07T12:50:53;2.25;;;1.13;;
10009;SDS011;5044;48.652;9.250;2023-05-07T12:53:21;2.90;;;1.00;;
10009;SDS011;5044;48.652;9.250;2023-05-07T12:55:52;1.77;;;1.15;;
10009;SDS011;5044;48.652;9.250;2023-05-07T12:58:20;2.65;;;0.90;;
10009;SDS011;5044;48.652;9.250;2023-05-07T13:00:48;1.65;;;0.88;;
10009;SDS011;5044;48.652;9.250;2023-05-07T13:03:22;2.67;;;1.15;;
10009;SDS011;5044;48.652;9.250;2023-05-07T13:05:50;1.65;;;1.00;;
10009;SDS011;5044;48.652;9.250;2023-05-07T13:08:24;2.20;;;0.88;;
10009;SDS011;5044;48.652;9.250;2023-05-07T13:10:57;1.83;;;0.80;;
10009;SDS011;5044;48.652;9.250;2023-05-07T13:13:24;1.10;;;0.70;;
10009;SDS011;5044;48.652;9.250;2023-05-07T13:15:51;2.30;;;0.90;;
10009;SDS011;5044;48.652;9.250;2023-05-07T13:18:18;5.80;;;0.95;;
10009;SDS011;5044;48.652;9.250;2023-05-07T13:20:45;2.53;;;0.95;;
10009;SDS011;5044;48.652;9.250;2023-05-07T13:23:12;1.35;;;0.80;;
10009;SDS011;5044;48.652;9.250;2023-05-07T13:25:39;4.32;;;0.82;;
10009;SDS011;5044;48.652;9.250;2023-05-07T13:28:07;2.08;;;0.70;;
10009;SDS011;5044;48.652;9.250;2023-05-07T13:30:34;3.10;;;0.88;;
10009;SDS011;5044;48.652;9.250;2023-05-07T13:33:01;1.70;;;0.90;;
10009;SDS011;5044;48.652;9.250;2023-05-07T13:35:28;3.08;;;1.20;;
10009;SDS011;5044;48.652;9.250;2023-05-07T13:37:55;3.70;;;0.82;;
10009;SDS011;5044;48.652;9.250;2023-05-07T13:40:22;1.75;;;0.68;;
10009;SDS011;5044;48.652;9.250;2023-05-07T13:42:49;3.05;;;0.80;;
10009;SDS011;5044;48.652;9.250;2023-05-07T13:45:18;4.32;;;1.38;;
10009;SDS011;5044;48.652;9.250;2023-05-07T13:47:46;3.42;;;1.83;;
10009;SDS011;5044;48.652;9.250;2023-05-07T13:50:17;4.85;;;1.35;;
10009;SDS011;5044;48.652;9.250;2023-05-07T14:09:23;1.98;;;1.10;;
10009;SDS011;5044;48.652;9.250;2023-05-07T14:11:50;3.67;;;1.20;;
10009;SDS011;5044;48.652;9.250;2023-05-07T14:14:17;6.90;;;1.70;;
10009;SDS011;5044;48.652;9.250;2023-05-07T14:16:45;2.58;;;1.20;;
10009;SDS011;5044;48.652;9.250;2023-05-07T14:19:12;2.97;;;1.38;;
10009;SDS011;5044;48.652;9.250;2023-05-07T14:21:39;2.85;;;1.27;;
10009;SDS011;5044;48.652;9.250;2023-05-07T14:24:06;0.80;;;0.60;;
10009;SDS011;5044;48.652;9.250;2023-05-07T14:26:35;3.83;;;1.45;;
10009;SDS011;5044;48.652;9.250;2023-05-07T14:29:02;4.25;;;1.23;;
10009;SDS011;5044;48.652;9.250;2023-05-07T14:31:29;3.58;;;1.15;;
10009;SDS011;5044;48.652;9.250;2023-05-07T14:33:56;1.92;;;0.98;;
10009;SDS011;5044;48.652;9.250;2023-05-07T14:36:24;2.55;;;1.83;;
10009;SDS011;5044;48.652;9.250;2023-05-07T14:38:51;5.53;;;1.50;;
10009;SDS011;5044;48.652;9.250;2023-05-07T14:41:19;3.33;;;1.20;;
10009;SDS011;5044;48.652;9.250;2023-05-07T14:43:49;4.72;;;1.10;;
10009;SDS011;5044;48.652;9.250;2023-05-07T14:46:16;2.97;;;1.27;;
10009;SDS011;5044;48.652;9.250;2023-05-07T14:48:43;2.13;;;0.90;;
10009;SDS011;5044;48.652;9.250;2023-05-07T14:51:11;4.90;;;1.50;;
10009;SDS011;5044;48.652;9.250;2023-05-07T14:53:53;2.30;;;0.85;;
10009;SDS011;5044;48.652;9.250;2023-05-07T14:56:20;4.45;;;0.82;;
10009;SDS011;5044;48.652;9.250;2023-05-07T14:58:49;3.40;;;0.85;;
10009;SDS011;5044;48.652;9.250;2023-05-07T15:01:19;1.38;;;1.17;;
10009;SDS011;5044;48.652;9.250;2023-05-07T15:03:51;3.10;;;0.73;;
10009;SDS011;5044;48.652;9.250;2023-05-07T15:06:18;3.53;;;1.45;;
10009;SDS011;5044;48.652;9.250;2023-05-07T15:08:45;2.08;;;1.27;;
10009;SDS011;5044;48.652;9.250;2023-05-07T15:11:11;0.73;;;0.55;;
10009;SDS011;5044;48.652;9.250;2023-05-07T15:13:38;4.40;;;0.65;;
10009;SDS011;5044;48.652;9.250;2023-05-07T15:16:07;2.38;;;0.90;;
10009;SDS011;5044;48.652;9.250;2023-05-07T15:18:34;1.10;;;0.90;;
10009;SDS011;5044;48.652;9.250;2023-05-07T15:21:00;2.05;;;1.42;;
10009;SDS011;5044;48.652;9.250;2023-05-07T15:23:27;1.20;;;0.80;;
10009;SDS011;5044;48.652;9.250;2023-05-07T15:25:55;1.85;;;1.33;;
10009;SDS011;5044;48.652;9.250;2023-05-07T15:28:22;1.83;;;1.13;;
10009;SDS011;5044;48.652;9.250;2023-05-07T15:30:49;2.80;;;1.67;;
10009;SDS011;5044;48.652;9.250;2023-05-07T15:33:17;1.90;;;1.50;;
10009;SDS011;5044;48.652;9.250;2023-05-07T15:35:44;4.47;;;1.33;;
10009;SDS011;5044;48.652;9.250;2023-05-07T15:38:11;1.65;;;1.27;;
10009;SDS011;5044;48.652;9.250;2023-05-07T15:40:39;3.50;;;1.83;;
10009;SDS011;5044;48.652;9.250;2023-05-07T15:43:06;2.05;;;1.13;;